createdAt,value
2022-12-03T00:02:23.881Z,18.05
2022-12-03T00:07:25.153Z,17.33
2022-12-03T00:12:24.443Z,16.13
2022-12-03T00:17:23.750Z,17.00
2022-12-03T00:22:27.800Z,15.82
2022-12-03T00:27:28.183Z,16.30
2022-12-03T00:32:33.707Z,17.25
2022-12-03T00:37:35.369Z,17.90
2022-12-03T00:42:36.010Z,17.90
2022-12-03T00:47:35.801Z,17.70
2022-12-03T00:52:36.596Z,17.08
2022-12-03T00:57:35.739Z,17.85
2022-12-03T01:02:42.270Z,15.77
2022-12-03T01:07:42.648Z,15.70
2022-12-03T01:12:42.323Z,16.20
2022-12-03T01:17:41.960Z,17.55
2022-12-03T01:22:44.152Z,17.35
2022-12-03T01:27:45.905Z,16.58
2022-12-03T01:32:45.197Z,16.13
2022-12-03T01:37:45.582Z,15.20
2022-12-03T01:42:46.512Z,15.93
2022-12-03T01:48:11.829Z,16.33
2022-12-03T01:53:16.917Z,14.85
2022-12-03T01:58:19.910Z,15.80
2022-12-03T02:03:25.630Z,15.02
2022-12-03T02:08:35.394Z,15.90
2022-12-03T02:13:35.015Z,15.38
2022-12-03T02:18:34.451Z,16.35
2022-12-03T02:23:43.447Z,16.13
2022-12-03T02:28:43.975Z,16.35
2022-12-03T02:33:43.249Z,15.45
2022-12-03T02:38:44.689Z,16.17
2022-12-03T02:43:45.415Z,16.08
2022-12-03T02:48:46.011Z,15.30
2022-12-03T02:53:55.370Z,16.50
2022-12-03T02:59:00.904Z,15.02
2022-12-03T03:04:00.875Z,15.32
2022-12-03T03:09:00.691Z,17.90
2022-12-03T03:14:02.683Z,16.10
2022-12-03T03:19:02.272Z,17.15
2022-12-03T03:24:01.167Z,16.13
2022-12-03T03:29:03.292Z,17.08
2022-12-03T03:34:02.769Z,17.10
2022-12-03T03:39:02.937Z,17.27
2022-12-03T03:44:05.302Z,17.65
2022-12-03T03:49:05.838Z,18.23
2022-12-03T03:54:06.627Z,15.65
2022-12-03T03:59:07.119Z,16.55
2022-12-03T04:04:08.792Z,15.80
2022-12-03T04:09:08.021Z,16.65
2022-12-03T04:14:10.097Z,16.50
2022-12-03T04:19:09.238Z,17.20
2022-12-03T04:24:10.303Z,21.55
2022-12-03T04:29:10.758Z,18.02
2022-12-03T04:34:28.984Z,18.17
2022-12-03T04:39:31.109Z,19.27
2022-12-03T04:44:37.648Z,18.55
2022-12-03T04:49:42.866Z,17.92
2022-12-03T04:54:42.172Z,17.50
2022-12-03T04:59:42.675Z,19.23
2022-12-03T05:04:49.863Z,19.13
2022-12-03T05:09:48.781Z,18.42
2022-12-03T05:14:49.211Z,19.15
2022-12-03T05:20:08.713Z,18.35
2022-12-03T05:25:08.748Z,19.20
2022-12-03T05:30:11.368Z,17.35
2022-12-03T05:35:11.695Z,17.52
2022-12-03T05:40:14.583Z,21.20
2022-12-03T05:45:15.046Z,18.50
2022-12-03T05:50:38.464Z,18.17
2022-12-03T05:55:53.649Z,18.80
2022-12-03T06:00:57.453Z,19.13
2022-12-03T06:05:56.380Z,20.38
2022-12-03T06:10:55.421Z,19.13
2022-12-03T06:15:54.622Z,19.67
2022-12-03T06:20:55.047Z,19.33
2022-12-03T06:26:21.017Z,20.17
2022-12-03T06:31:32.372Z,20.88
2022-12-03T06:36:57.092Z,21.45
2022-12-03T06:42:15.105Z,23.23
2022-12-03T06:47:16.847Z,23.30
2022-12-03T06:52:25.069Z,21.40
2022-12-03T06:57:33.351Z,20.73
2022-12-03T07:09:21.670Z,18.58
2022-12-03T07:58:39.818Z,17.67
2022-12-03T08:03:47.142Z,17.05
2022-12-03T08:08:52.652Z,16.50
2022-12-03T08:14:06.186Z,16.10
2022-12-03T08:19:22.334Z,16.02
2022-12-03T08:24:49.014Z,16.80
2022-12-03T08:30:07.042Z,18.17
2022-12-03T08:35:15.786Z,17.17
2022-12-03T08:40:25.054Z,17.13
2022-12-03T08:45:41.132Z,18.40
2022-12-03T08:50:43.965Z,17.88
2022-12-03T08:55:48.168Z,16.30
2022-12-03T09:00:48.651Z,16.17
2022-12-03T09:05:47.716Z,15.60
2022-12-03T09:10:47.046Z,19.58
2022-12-03T09:15:46.264Z,18.75
2022-12-03T09:20:46.701Z,14.55
2022-12-03T09:25:45.974Z,15.73
2022-12-03T09:30:45.156Z,18.60
2022-12-03T09:35:51.151Z,18.38
2022-12-03T09:40:52.699Z,17.08
2022-12-03T09:45:51.839Z,16.83
2022-12-03T09:50:53.243Z,19.17
2022-12-03T09:55:53.101Z,18.73
2022-12-03T10:00:53.592Z,27.13
2022-12-03T10:05:56.245Z,21.52
2022-12-03T10:10:57.779Z,21.13
2022-12-03T10:15:59.867Z,18.65
2022-12-03T10:21:00.544Z,17.13
2022-12-03T10:26:03.142Z,19.55
2022-12-03T10:31:03.636Z,20.07
2022-12-03T10:36:24.810Z,20.02
2022-12-03T10:41:26.172Z,17.70
2022-12-03T10:46:25.354Z,17.45
2022-12-03T10:51:26.132Z,18.33
2022-12-03T10:56:28.431Z,16.67
2022-12-03T11:01:28.060Z,15.55
2022-12-03T11:06:41.522Z,17.33
2022-12-03T11:11:40.429Z,16.58
2022-12-03T11:17:10.234Z,15.40
2022-12-03T11:22:41.640Z,14.98
2022-12-03T11:27:45.031Z,18.02
2022-12-03T11:33:01.038Z,18.10
2022-12-03T11:38:47.401Z,18.60
2022-12-03T11:44:34.092Z,17.15
2022-12-03T11:49:47.419Z,16.50
2022-12-03T11:54:51.512Z,17.60
2022-12-03T12:00:17.668Z,16.30
2022-12-03T12:05:23.656Z,19.52
2022-12-03T12:10:45.918Z,20.95
2022-12-03T12:15:46.795Z,21.58
2022-12-03T12:20:45.801Z,17.27
2022-12-03T12:25:48.244Z,17.33
2022-12-03T12:30:51.331Z,15.25
2022-12-03T12:35:53.267Z,16.58
2022-12-03T12:41:00.279Z,15.90
2022-12-03T12:46:38.701Z,16.70
2022-12-03T12:51:26.712Z,16.38
2022-12-03T12:56:27.609Z,17.35
2022-12-03T13:01:30.505Z,15.95
2022-12-03T13:06:33.173Z,14.50
2022-12-03T13:11:46.929Z,17.23
2022-12-03T13:16:48.396Z,17.67
2022-12-03T13:21:47.398Z,20.13
2022-12-03T13:26:46.323Z,18.67
2022-12-03T13:31:54.361Z,17.63
2022-12-03T13:36:58.443Z,15.85
2022-12-03T13:42:15.397Z,17.88
2022-12-03T13:47:19.788Z,15.98
2022-12-03T13:52:21.900Z,15.13
2022-12-03T13:57:20.826Z,16.25
2022-12-03T14:02:21.592Z,16.98
2022-12-03T14:07:20.485Z,19.55
2022-12-03T14:12:30.842Z,21.33
2022-12-03T14:17:33.604Z,19.33
2022-12-03T14:22:32.643Z,19.83
2022-12-03T14:27:31.654Z,17.35
2022-12-03T14:32:32.109Z,21.38
2022-12-03T14:37:31.237Z,21.45
2022-12-03T14:42:30.112Z,17.98
2022-12-03T14:47:29.050Z,18.50
2022-12-03T14:52:29.381Z,18.42
2022-12-03T14:57:28.373Z,16.30
2022-12-03T15:02:27.498Z,18.77
2022-12-03T15:07:26.427Z,17.73
2022-12-03T15:12:26.751Z,18.98
2022-12-03T15:17:31.347Z,20.45
2022-12-03T15:22:30.858Z,20.17
2022-12-03T15:27:31.055Z,21.85
2022-12-03T15:32:30.041Z,19.70
2022-12-03T15:37:28.875Z,20.98
2022-12-03T15:42:28.235Z,22.50
2022-12-03T15:47:30.711Z,21.85
2022-12-03T15:52:29.647Z,23.10
2022-12-03T15:57:29.904Z,20.75
2022-12-03T16:02:34.019Z,21.27
2022-12-03T16:07:33.105Z,23.52
2022-12-03T16:12:32.202Z,22.27
2022-12-03T16:17:32.450Z,20.63
2022-12-03T16:22:31.303Z,24.10
2022-12-03T16:27:30.904Z,21.05
2022-12-03T16:32:29.849Z,21.60
2022-12-03T16:37:30.192Z,19.05
2022-12-03T16:42:29.023Z,21.98
2022-12-03T16:47:33.635Z,22.02
2022-12-03T16:52:34.770Z,19.10
2022-12-03T16:57:34.130Z,19.23
2022-12-03T17:02:33.033Z,18.80
2022-12-03T17:07:32.051Z,17.50
2022-12-03T17:12:54.156Z,21.75
2022-12-03T17:17:51.353Z,15.48
2022-12-03T17:22:51.187Z,15.73
2022-12-03T17:27:52.489Z,18.77
2022-12-03T17:32:51.611Z,18.08
2022-12-03T17:37:50.506Z,16.15
2022-12-03T17:42:49.457Z,15.98
2022-12-03T17:47:49.764Z,16.33
2022-12-03T17:52:48.601Z,17.05
2022-12-03T17:57:47.470Z,17.85
2022-12-03T18:02:46.325Z,16.85
2022-12-03T18:07:46.655Z,18.08
2022-12-03T18:12:45.464Z,15.90
2022-12-03T18:17:44.329Z,17.33
2022-12-03T18:22:43.231Z,18.17
2022-12-03T18:27:43.522Z,17.65
2022-12-03T18:32:42.456Z,19.15
2022-12-03T18:37:41.396Z,15.70
2022-12-03T18:42:40.245Z,15.25
2022-12-03T18:47:40.624Z,17.25
2022-12-03T18:52:40.070Z,14.95
2022-12-03T18:57:38.818Z,14.68
2022-12-03T19:03:01.775Z,16.20
2022-12-03T19:07:58.088Z,15.77
2022-12-03T19:12:57.098Z,15.00
2022-12-03T19:17:55.962Z,15.85
2022-12-03T19:22:54.919Z,17.77
2022-12-03T19:27:57.207Z,17.35
2022-12-03T19:32:56.063Z,16.45
2022-12-03T19:37:55.788Z,15.65
2022-12-03T19:42:56.179Z,14.40
2022-12-03T19:47:55.018Z,13.55
2022-12-03T19:52:53.908Z,14.70
2022-12-03T19:57:52.827Z,14.10
2022-12-03T20:02:53.099Z,13.50
2022-12-03T20:07:52.046Z,14.52
2022-12-03T20:12:51.045Z,14.98
2022-12-03T20:17:49.908Z,13.07
2022-12-03T20:22:50.220Z,13.55
2022-12-03T20:27:49.103Z,14.07
2022-12-03T20:32:47.869Z,13.07
2022-12-03T20:37:46.785Z,15.35
2022-12-03T20:42:50.152Z,15.45
2022-12-03T20:47:48.996Z,14.10
2022-12-03T20:53:09.410Z,13.55
2022-12-03T20:58:08.219Z,13.98
2022-12-03T21:03:07.116Z,14.18
2022-12-03T21:08:06.434Z,14.77
2022-12-03T21:13:05.374Z,13.45
2022-12-03T21:18:05.965Z,12.10
2022-12-03T21:23:04.952Z,13.60
2022-12-03T21:28:04.369Z,15.10
2022-12-03T21:33:03.274Z,13.73
2022-12-03T21:38:03.581Z,14.55
2022-12-03T21:43:02.450Z,13.45
2022-12-03T21:48:01.349Z,14.15
2022-12-03T21:53:00.605Z,14.30
2022-12-03T21:58:00.916Z,16.25
2022-12-03T22:02:59.963Z,16.25
2022-12-03T22:07:59.037Z,15.48
2022-12-03T22:12:58.010Z,16.73
2022-12-03T22:17:58.218Z,16.77
2022-12-03T22:22:56.957Z,16.77
2022-12-03T22:27:55.789Z,16.17
2022-12-03T22:32:54.685Z,16.00
2022-12-03T22:37:54.922Z,14.88
2022-12-03T22:42:54.165Z,16.95
2022-12-03T22:47:53.023Z,19.33
2022-12-03T22:52:51.925Z,18.20
2022-12-03T22:57:52.147Z,16.98
2022-12-03T23:02:52.038Z,15.30
2022-12-03T23:07:52.312Z,17.60
2022-12-03T23:12:52.559Z,16.80
2022-12-03T23:17:52.700Z,15.70
2022-12-03T23:22:51.618Z,17.17
2022-12-03T23:27:50.458Z,16.80
2022-12-03T23:32:50.698Z,16.20
2022-12-03T23:37:49.510Z,16.77
2022-12-03T23:42:48.295Z,15.75
2022-12-03T23:47:47.189Z,15.57
2022-12-03T23:52:47.375Z,13.77
2022-12-03T23:57:46.180Z,15.02
